PWSweather.com
Personal Weather Stations
Station Observations
SHAHALMS1
Eftra, Falkenberg, HA

EftraFalkenberg, HA

Lat: 56.85, Lon: 12.65

Elevation: 140

Station Type:

http://hem.passagen.se/risarp101

High Low Average
Temperature 63.9°F17.7°C 53.2°F11.8°C 58.2°F14.6°C
Dew Point 52.7°F11.5°C 41.5°F5.3°C 48.1°F8.9°C
Winds 9.2 mph 14.8 kmh Calm Calm 4.0 mph WSW6.4 kmh WSW
Wind Gusts 22.9 mph36.9 kmh -- 10.0 mph16.1 kmh
Humidity 88% 56% 70%
Pressure 30.07 in1018.3 mb 29.89 in1012.2 mb -
Precipitation 0.00 in0.0 mm - -
Hour Temp Dew Point Humidity Winds Wind Gusts Pressure Precip Precip Rate Daily Precip Total
12:00 AM 55.0°F12.8°C 51.2°F10.7°C 87% Calm Calm -- 29.89 in1012.2 mb 0.00 in0.0 mm 0.00 in0.0 mm 0.00 in0.0 mm
12:10 AM 55.2°F12.9°C 51.4°F10.8°C 87% Calm Calm -- 29.89 in1012.2 mb 0.00 in0.0 mm 0.00 in0.0 mm 0.00 in0.0 mm
12:20 AM 55.0°F12.8°C 51.2°F10.7°C 87% 0.1 mph WNW0.2 kmh WNW 3.2 mph5.1 kmh 29.89 in1012.2 mb 0.00 in0.0 mm 0.00 in0.0 mm 0.00 in0.0 mm
12:30 AM 55.0°F12.8°C 51.5°F10.8°C 88% 1.4 mph W2.3 kmh W 9.3 mph15.0 kmh 29.89 in1012.2 mb 0.00 in0.0 mm 0.00 in0.0 mm 0.00 in0.0 mm
12:40 AM 55.2°F12.9°C 51.7°F10.9°C 88% 1.4 mph W2.3 kmh W 9.3 mph15.0 kmh 29.92 in1013.2 mb 0.00 in0.0 mm 0.00 in0.0 mm 0.00 in0.0 mm
12:50 AM 55.0°F12.8°C 51.5°F10.8°C 88% 0.9 mph W1.4 kmh W 5.7 mph9.2 kmh 29.92 in1013.2 mb 0.00 in0.0 mm 0.00 in0.0 mm 0.00 in0.0 mm
01:00 AM 54.9°F12.7°C 51.1°F10.6°C 87% 0.6 mph W1.0 kmh W 6.4 mph10.3 kmh 29.89 in1012.2 mb 0.00 in0.0 mm 0.00 in0.0 mm 0.00 in0.0 mm
01:10 AM 54.5°F12.5°C 50.7°F10.4°C 87% Calm Calm -- 29.89 in1012.2 mb 0.00 in0.0 mm 0.00 in0.0 mm 0.00 in0.0 mm
01:20 AM 54.1°F12.3°C 50.0°F10.0°C 86% Calm Calm -- 29.89 in1012.2 mb 0.00 in0.0 mm 0.00 in0.0 mm 0.00 in0.0 mm
01:30 AM 54.0°F12.2°C 50.2°F10.1°C 87% Calm Calm -- 29.89 in1012.2 mb 0.00 in0.0 mm 0.00 in0.0 mm 0.00 in0.0 mm
01:40 AM 54.0°F12.2°C 50.2°F10.1°C 87% 0.3 mph S0.5 kmh S 3.6 mph5.8 kmh 29.89 in1012.2 mb 0.00 in0.0 mm 0.00 in0.0 mm 0.00 in0.0 mm
01:50 AM 54.1°F12.3°C 50.7°F10.4°C 88% 1.0 mph SSW1.6 kmh SSW 9.3 mph15.0 kmh 29.89 in1012.2 mb 0.00 in0.0 mm 0.00 in0.0 mm 0.00 in0.0 mm
02:00 AM 54.0°F12.2°C 50.5°F10.3°C 88% 1.6 mph WSW2.6 kmh WSW 8.6 mph13.8 kmh 29.89 in1012.2 mb 0.00 in0.0 mm 0.00 in0.0 mm 0.00 in0.0 mm
02:10 AM 53.8°F12.1°C 50.0°F10.0°C 87% 0.9 mph WSW1.4 kmh WSW 5.4 mph8.7 kmh 29.89 in1012.2 mb 0.00 in0.0 mm 0.00 in0.0 mm 0.00 in0.0 mm
02:20 AM 53.6°F12.0°C 49.8°F9.9°C 87% 1.3 mph WSW2.1 kmh WSW 9.7 mph15.6 kmh 29.89 in1012.2 mb 0.00 in0.0 mm 0.00 in0.0 mm 0.00 in0.0 mm
02:30 AM 53.4°F11.9°C 49.6°F9.8°C 87% 0.6 mph W1.0 kmh W 5.7 mph9.2 kmh 29.92 in1013.2 mb 0.00 in0.0 mm 0.00 in0.0 mm 0.00 in0.0 mm
02:40 AM 53.4°F11.9°C 49.6°F9.8°C 87% 1.1 mph SSW1.8 kmh SSW 8.9 mph14.3 kmh 29.89 in1012.2 mb 0.00 in0.0 mm 0.00 in0.0 mm 0.00 in0.0 mm
02:50 AM 53.6°F12.0°C 49.8°F9.9°C 87% 1.4 mph WSW2.3 kmh WSW 6.8 mph10.9 kmh 29.89 in1012.2 mb 0.00 in0.0 mm 0.00 in0.0 mm 0.00 in0.0 mm
03:00 AM 53.4°F11.9°C 49.6°F9.8°C 87% 0.9 mph WSW1.4 kmh WSW 6.8 mph10.9 kmh 29.92 in1013.2 mb 0.00 in0.0 mm 0.00 in0.0 mm 0.00 in0.0 mm
03:10 AM 53.4°F11.9°C 49.6°F9.8°C 87% 0.5 mph WSW0.8 kmh WSW 5.7 mph9.2 kmh 29.92 in1013.2 mb 0.00 in0.0 mm 0.00 in0.0 mm 0.00 in0.0 mm
03:20 AM 53.2°F11.8°C 49.5°F9.7°C 87% 1.1 mph S1.8 kmh S 6.8 mph10.9 kmh 29.92 in1013.2 mb 0.00 in0.0 mm 0.00 in0.0 mm 0.00 in0.0 mm
03:30 AM 53.2°F11.8°C 49.5°F9.7°C 87% 1.0 mph SW1.6 kmh SW 5.7 mph9.2 kmh 29.89 in1012.2 mb 0.00 in0.0 mm 0.00 in0.0 mm 0.00 in0.0 mm
03:40 AM 53.4°F11.9°C 49.6°F9.8°C 87% 1.4 mph WSW2.3 kmh WSW 10.0 mph16.1 kmh 29.92 in1013.2 mb 0.00 in0.0 mm 0.00 in0.0 mm 0.00 in0.0 mm
03:50 AM 53.6°F12.0°C 49.8°F9.9°C 87% 1.5 mph SW2.4 kmh SW 5.7 mph9.2 kmh 29.92 in1013.2 mb 0.00 in0.0 mm 0.00 in0.0 mm 0.00 in0.0 mm
04:00 AM 53.8°F12.1°C 50.0°F10.0°C 87% 2.1 mph WSW3.4 kmh WSW 8.6 mph13.8 kmh 29.89 in1012.2 mb 0.00 in0.0 mm 0.00 in0.0 mm 0.00 in0.0 mm
04:10 AM 54.0°F12.2°C 50.2°F10.1°C 87% 1.1 mph WSW1.8 kmh WSW 5.7 mph9.2 kmh 29.89 in1012.2 mb 0.00 in0.0 mm 0.00 in0.0 mm 0.00 in0.0 mm
04:20 AM 54.1°F12.3°C 50.4°F10.2°C 87% 1.8 mph WSW2.9 kmh WSW 6.4 mph10.3 kmh 29.89 in1012.2 mb 0.00 in0.0 mm 0.00 in0.0 mm 0.00 in0.0 mm
04:30 AM 54.1°F12.3°C 50.4°F10.2°C 87% 1.7 mph WSW2.7 kmh WSW 11.8 mph19.0 kmh 29.89 in1012.2 mb 0.00 in0.0 mm 0.00 in0.0 mm 0.00 in0.0 mm
04:40 AM 54.0°F12.2°C 49.9°F9.9°C 86% 1.8 mph SW2.9 kmh SW 8.6 mph13.8 kmh 29.89 in1012.2 mb 0.00 in0.0 mm 0.00 in0.0 mm 0.00 in0.0 mm
04:50 AM 54.3°F12.4°C 50.2°F10.1°C 86% 2.5 mph WSW4.0 kmh WSW 9.3 mph15.0 kmh 29.89 in1012.2 mb 0.00 in0.0 mm 0.00 in0.0 mm 0.00 in0.0 mm
05:00 AM 54.7°F12.6°C 50.6°F10.3°C 86% 3.8 mph W6.1 kmh W 10.4 mph16.7 kmh 29.89 in1012.2 mb 0.00 in0.0 mm 0.00 in0.0 mm 0.00 in0.0 mm
05:10 AM 54.9°F12.7°C 50.8°F10.4°C 86% 2.6 mph WSW4.2 kmh WSW 10.4 mph16.7 kmh 29.89 in1012.2 mb 0.00 in0.0 mm 0.00 in0.0 mm 0.00 in0.0 mm
05:20 AM 55.0°F12.8°C 50.6°F10.3°C 85% 3.9 mph WSW6.3 kmh WSW 10.0 mph16.1 kmh 29.89 in1012.2 mb 0.00 in0.0 mm 0.00 in0.0 mm 0.00 in0.0 mm
05:30 AM 55.2°F12.9°C 50.5°F10.3°C 84% 3.7 mph WSW6.0 kmh WSW 11.5 mph18.5 kmh 29.89 in1012.2 mb 0.00 in0.0 mm 0.00 in0.0 mm 0.00 in0.0 mm
05:40 AM 55.2°F12.9°C 50.1°F10.1°C 83% 3.1 mph W5.0 kmh W 8.6 mph13.8 kmh 29.89 in1012.2 mb 0.00 in0.0 mm 0.00 in0.0 mm 0.00 in0.0 mm
05:50 AM 55.2°F12.9°C 50.1°F10.1°C 83% 3.9 mph W6.3 kmh W 11.8 mph19.0 kmh 29.89 in1012.2 mb 0.00 in0.0 mm 0.00 in0.0 mm 0.00 in0.0 mm
06:00 AM 55.4°F13.0°C 50.0°F10.0°C 82% 3.0 mph W4.8 kmh W 12.5 mph20.1 kmh 29.89 in1012.2 mb 0.00 in0.0 mm 0.00 in0.0 mm 0.00 in0.0 mm
06:10 AM 55.6°F13.1°C 50.2°F10.1°C 82% 3.1 mph W5.0 kmh W 8.9 mph14.3 kmh 29.89 in1012.2 mb 0.00 in0.0 mm 0.00 in0.0 mm 0.00 in0.0 mm
06:20 AM 55.9°F13.3°C 50.5°F10.3°C 82% 4.1 mph W6.6 kmh W 10.0 mph16.1 kmh 29.89 in1012.2 mb 0.00 in0.0 mm 0.00 in0.0 mm 0.00 in0.0 mm
06:30 AM 56.3°F13.5°C 50.5°F10.3°C 81% 5.1 mph WSW8.2 kmh WSW 8.9 mph14.3 kmh 29.89 in1012.2 mb 0.00 in0.0 mm 0.00 in0.0 mm 0.00 in0.0 mm
06:40 AM 56.5°F13.6°C 50.7°F10.4°C 81% 2.6 mph WSW4.2 kmh WSW 6.1 mph9.8 kmh 29.92 in1013.2 mb 0.00 in0.0 mm 0.00 in0.0 mm 0.00 in0.0 mm
06:50 AM 56.8°F13.8°C 51.1°F10.6°C 81% 3.0 mph W4.8 kmh W 11.1 mph17.9 kmh 29.92 in1013.2 mb 0.00 in0.0 mm 0.00 in0.0 mm 0.00 in0.0 mm
07:00 AM 57.2°F14.0°C 51.4°F10.8°C 81% 3.6 mph W5.8 kmh W 9.3 mph15.0 kmh 29.92 in1013.2 mb 0.00 in0.0 mm 0.00 in0.0 mm 0.00 in0.0 mm
07:10 AM 57.7°F14.3°C 51.6°F10.9°C 80% 3.7 mph W6.0 kmh W 10.0 mph16.1 kmh 29.92 in1013.2 mb 0.00 in0.0 mm 0.00 in0.0 mm 0.00 in0.0 mm
07:20 AM 58.8°F14.9°C 52.0°F11.1°C 78% 4.9 mph W7.9 kmh W 14.3 mph23.0 kmh 29.92 in1013.2 mb 0.00 in0.0 mm 0.00 in0.0 mm 0.00 in0.0 mm
07:30 AM 59.2°F15.1°C 52.3°F11.3°C 78% 2.6 mph W4.2 kmh W 8.6 mph13.8 kmh 29.92 in1013.2 mb 0.00 in0.0 mm 0.00 in0.0 mm 0.00 in0.0 mm
07:40 AM 59.9°F15.5°C 52.7°F11.5°C 77% 5.2 mph W8.4 kmh W 12.5 mph20.1 kmh 29.92 in1013.2 mb 0.00 in0.0 mm 0.00 in0.0 mm 0.00 in0.0 mm
07:50 AM 60.6°F15.9°C 52.6°F11.4°C 75% 5.5 mph SW8.9 kmh SW 15.7 mph25.3 kmh 29.92 in1013.2 mb 0.00 in0.0 mm 0.00 in0.0 mm 0.00 in0.0 mm
08:00 AM 61.2°F16.2°C 52.4°F11.3°C 73% 4.8 mph W7.7 kmh W 12.2 mph19.6 kmh 29.92 in1013.2 mb 0.00 in0.0 mm 0.00 in0.0 mm 0.00 in0.0 mm
08:10 AM 61.3°F16.3°C 52.2°F11.2°C 72% 3.7 mph WSW6.0 kmh WSW 9.3 mph15.0 kmh 29.92 in1013.2 mb 0.00 in0.0 mm 0.00 in0.0 mm 0.00 in0.0 mm
08:20 AM 60.8°F16.0°C 51.3°F10.7°C 71% 5.5 mph WNW8.9 kmh WNW 20.4 mph32.8 kmh 29.92 in1013.2 mb 0.00 in0.0 mm 0.00 in0.0 mm 0.00 in0.0 mm
08:50 AM 61.9°F16.6°C 52.4°F11.3°C 71% 5.1 mph W8.2 kmh W 11.5 mph18.5 kmh 30.01 in1016.3 mb 0.00 in0.0 mm 0.00 in0.0 mm 0.00 in0.0 mm
09:00 AM 61.3°F16.3°C 51.1°F10.6°C 69% 5.6 mph W9.0 kmh W 12.9 mph20.8 kmh 29.95 in1014.2 mb 0.00 in0.0 mm 0.00 in0.0 mm 0.00 in0.0 mm
09:10 AM 60.8°F16.0°C 50.6°F10.3°C 69% 5.4 mph W8.7 kmh W 10.4 mph16.7 kmh 29.95 in1014.2 mb 0.00 in0.0 mm 0.00 in0.0 mm 0.00 in0.0 mm
09:20 AM 60.8°F16.0°C 51.0°F10.6°C 70% 5.3 mph W8.5 kmh W 10.0 mph16.1 kmh 29.95 in1014.2 mb 0.00 in0.0 mm 0.00 in0.0 mm 0.00 in0.0 mm
09:30 AM 61.7°F16.5°C 52.6°F11.4°C 72% 4.7 mph W7.6 kmh W 12.2 mph19.6 kmh 29.95 in1014.2 mb 0.00 in0.0 mm 0.00 in0.0 mm 0.00 in0.0 mm
09:40 AM 61.7°F16.5°C 51.8°F11.0°C 70% 6.2 mph W10.0 kmh W 16.1 mph25.9 kmh 29.95 in1014.2 mb 0.00 in0.0 mm 0.00 in0.0 mm 0.00 in0.0 mm
09:50 AM 62.1°F16.7°C 52.5°F11.4°C 71% 7.1 mph W11.4 kmh W 21.1 mph34.0 kmh 29.95 in1014.2 mb 0.00 in0.0 mm 0.00 in0.0 mm 0.00 in0.0 mm
10:00 AM 61.5°F16.4°C 52.4°F11.3°C 72% 4.2 mph W6.8 kmh W 15.7 mph25.3 kmh 29.95 in1014.2 mb 0.00 in0.0 mm 0.00 in0.0 mm 0.00 in0.0 mm
10:10 AM 61.0°F16.1°C 52.6°F11.4°C 74% 4.0 mph WNW6.4 kmh WNW 11.5 mph18.5 kmh 29.95 in1014.2 mb 0.00 in0.0 mm 0.00 in0.0 mm 0.00 in0.0 mm
10:20 AM 60.8°F16.0°C 52.5°F11.4°C 74% 5.3 mph W8.5 kmh W 12.9 mph20.8 kmh 29.95 in1014.2 mb 0.00 in0.0 mm 0.00 in0.0 mm 0.00 in0.0 mm
10:30 AM 60.8°F16.0°C 52.1°F11.2°C 73% 5.6 mph WNW9.0 kmh WNW 15.7 mph25.3 kmh 29.95 in1014.2 mb 0.00 in0.0 mm 0.00 in0.0 mm 0.00 in0.0 mm
10:40 AM 60.4°F15.8°C 50.6°F10.3°C 70% 7.4 mph W11.9 kmh W 20.8 mph33.5 kmh 29.98 in1015.2 mb 0.00 in0.0 mm 0.00 in0.0 mm 0.00 in0.0 mm
10:50 AM 60.3°F15.7°C 50.4°F10.2°C 70% 7.9 mph WNW12.7 kmh WNW 20.4 mph32.8 kmh 29.98 in1015.2 mb 0.00 in0.0 mm 0.00 in0.0 mm 0.00 in0.0 mm
11:00 AM 60.8°F16.0°C 51.0°F10.6°C 70% 6.5 mph WNW10.5 kmh WNW 19.3 mph31.1 kmh 29.98 in1015.2 mb 0.00 in0.0 mm 0.00 in0.0 mm 0.00 in0.0 mm
11:10 AM 61.2°F16.2°C 50.9°F10.5°C 69% 6.4 mph W10.3 kmh W 16.8 mph27.0 kmh 29.98 in1015.2 mb 0.00 in0.0 mm 0.00 in0.0 mm 0.00 in0.0 mm
11:20 AM 61.3°F16.3°C 50.7°F10.4°C 68% 6.4 mph WNW10.3 kmh WNW 15.7 mph25.3 kmh 29.98 in1015.2 mb 0.00 in0.0 mm 0.00 in0.0 mm 0.00 in0.0 mm
11:30 AM 61.3°F16.3°C 51.1°F10.6°C 69% 6.4 mph WNW10.3 kmh WNW 21.1 mph34.0 kmh 30.01 in1016.3 mb 0.00 in0.0 mm 0.00 in0.0 mm 0.00 in0.0 mm
11:40 AM 61.5°F16.4°C 51.3°F10.7°C 69% 6.4 mph WNW10.3 kmh WNW 19.3 mph31.1 kmh 30.01 in1016.3 mb 0.00 in0.0 mm 0.00 in0.0 mm 0.00 in0.0 mm
11:50 AM 62.1°F16.7°C 51.8°F11.0°C 69% 7.3 mph WNW11.7 kmh WNW 20.4 mph32.8 kmh 30.01 in1016.3 mb 0.00 in0.0 mm 0.00 in0.0 mm 0.00 in0.0 mm
12:00 PM 61.9°F16.6°C 50.8°F10.4°C 67% 6.6 mph WNW10.6 kmh WNW 22.9 mph36.9 kmh 30.01 in1016.3 mb 0.00 in0.0 mm 0.00 in0.0 mm 0.00 in0.0 mm
12:10 PM 62.6°F17.0°C 51.1°F10.6°C 66% 6.3 mph W10.1 kmh W 15.7 mph25.3 kmh 30.01 in1016.3 mb 0.00 in0.0 mm 0.00 in0.0 mm 0.00 in0.0 mm
12:20 PM 63.1°F17.3°C 52.0°F11.1°C 67% 5.8 mph W9.3 kmh W 15.4 mph24.8 kmh 30.01 in1016.3 mb 0.00 in0.0 mm 0.00 in0.0 mm 0.00 in0.0 mm
12:30 PM 63.3°F17.4°C 51.3°F10.7°C 65% 6.4 mph WNW10.3 kmh WNW 16.1 mph25.9 kmh 29.98 in1015.2 mb 0.00 in0.0 mm 0.00 in0.0 mm 0.00 in0.0 mm
12:40 PM 63.1°F17.3°C 50.3°F10.2°C 63% 7.1 mph WNW11.4 kmh WNW 19.0 mph30.6 kmh 30.01 in1016.3 mb 0.00 in0.0 mm 0.00 in0.0 mm 0.00 in0.0 mm
12:50 PM 63.3°F17.4°C 50.5°F10.3°C 63% 5.8 mph W9.3 kmh W 13.6 mph21.9 kmh 30.01 in1016.3 mb 0.00 in0.0 mm 0.00 in0.0 mm 0.00 in0.0 mm
01:00 PM 62.6°F17.0°C 49.4°F9.7°C 62% 6.4 mph W10.3 kmh W 17.5 mph28.2 kmh 29.98 in1015.2 mb 0.00 in0.0 mm 0.00 in0.0 mm 0.00 in0.0 mm
01:10 PM 63.0°F17.2°C 49.7°F9.8°C 62% 5.5 mph NW8.9 kmh NW 17.2 mph27.7 kmh 30.01 in1016.3 mb 0.00 in0.0 mm 0.00 in0.0 mm 0.00 in0.0 mm
01:20 PM 63.0°F17.2°C 49.3°F9.6°C 61% 6.6 mph WNW10.6 kmh WNW 21.1 mph34.0 kmh 30.01 in1016.3 mb 0.00 in0.0 mm 0.00 in0.0 mm 0.00 in0.0 mm
01:30 PM 63.1°F17.3°C 49.0°F9.4°C 60% 6.3 mph WNW10.1 kmh WNW 12.9 mph20.8 kmh 30.01 in1016.3 mb 0.00 in0.0 mm 0.00 in0.0 mm 0.00 in0.0 mm
01:40 PM 63.3°F17.4°C 49.6°F9.8°C 61% 6.6 mph W10.6 kmh W 15.0 mph24.1 kmh 30.01 in1016.3 mb 0.00 in0.0 mm 0.00 in0.0 mm 0.00 in0.0 mm
01:50 PM 63.9°F17.7°C 50.1°F10.1°C 61% 6.1 mph W9.8 kmh W 16.5 mph26.6 kmh 30.01 in1016.3 mb 0.00 in0.0 mm 0.00 in0.0 mm 0.00 in0.0 mm
02:00 PM 63.7°F17.6°C 49.5°F9.7°C 60% 5.7 mph W9.2 kmh W 13.6 mph21.9 kmh 30.04 in1017.3 mb 0.00 in0.0 mm 0.00 in0.0 mm 0.00 in0.0 mm
02:10 PM 63.1°F17.3°C 49.0°F9.4°C 60% 6.4 mph W10.3 kmh W 14.0 mph22.5 kmh 30.04 in1017.3 mb 0.00 in0.0 mm 0.00 in0.0 mm 0.00 in0.0 mm
02:20 PM 62.6°F17.0°C 48.1°F8.9°C 59% 6.9 mph NW11.1 kmh NW 17.2 mph27.7 kmh 30.04 in1017.3 mb 0.00 in0.0 mm 0.00 in0.0 mm 0.00 in0.0 mm
02:30 PM 62.6°F17.0°C 48.1°F8.9°C 59% 7.9 mph WNW12.7 kmh WNW 16.5 mph26.6 kmh 30.04 in1017.3 mb 0.00 in0.0 mm 0.00 in0.0 mm 0.00 in0.0 mm
02:40 PM 62.6°F17.0°C 48.5°F9.2°C 60% 7.2 mph WNW11.6 kmh WNW 20.4 mph32.8 kmh 30.04 in1017.3 mb 0.00 in0.0 mm 0.00 in0.0 mm 0.00 in0.0 mm
02:50 PM 62.6°F17.0°C 48.1°F8.9°C 59% 5.2 mph W8.4 kmh W 12.9 mph20.8 kmh 30.04 in1017.3 mb 0.00 in0.0 mm 0.00 in0.0 mm 0.00 in0.0 mm
03:00 PM 62.6°F17.0°C 48.5°F9.2°C 60% 6.5 mph W10.5 kmh W 16.1 mph25.9 kmh 30.07 in1018.3 mb 0.00 in0.0 mm 0.00 in0.0 mm 0.00 in0.0 mm
03:10 PM 62.6°F17.0°C 48.1°F8.9°C 59% 5.4 mph WNW8.7 kmh WNW 12.2 mph19.6 kmh 30.07 in1018.3 mb 0.00 in0.0 mm 0.00 in0.0 mm 0.00 in0.0 mm
03:20 PM 62.4°F16.9°C 48.3°F9.1°C 60% 3.7 mph WNW6.0 kmh WNW 12.5 mph20.1 kmh 30.07 in1018.3 mb 0.00 in0.0 mm 0.00 in0.0 mm 0.00 in0.0 mm
03:30 PM 63.0°F17.2°C 48.9°F9.4°C 60% 3.9 mph WNW6.3 kmh WNW 13.6 mph21.9 kmh 30.07 in1018.3 mb 0.00 in0.0 mm 0.00 in0.0 mm 0.00 in0.0 mm
03:40 PM 63.3°F17.4°C 48.7°F9.3°C 59% 6.1 mph WNW9.8 kmh WNW 12.2 mph19.6 kmh 30.07 in1018.3 mb 0.00 in0.0 mm 0.00 in0.0 mm 0.00 in0.0 mm
03:50 PM 62.8°F17.1°C 47.3°F8.5°C 57% 6.6 mph W10.6 kmh W 13.6 mph21.9 kmh 30.07 in1018.3 mb 0.00 in0.0 mm 0.00 in0.0 mm 0.00 in0.0 mm
04:00 PM 63.3°F17.4°C 48.7°F9.3°C 59% 5.8 mph W9.3 kmh W 14.0 mph22.5 kmh 30.07 in1018.3 mb 0.00 in0.0 mm 0.00 in0.0 mm 0.00 in0.0 mm
04:10 PM 63.0°F17.2°C 47.5°F8.6°C 57% 5.8 mph WNW9.3 kmh WNW 16.8 mph27.0 kmh 30.07 in1018.3 mb 0.00 in0.0 mm 0.00 in0.0 mm 0.00 in0.0 mm
04:20 PM 62.6°F17.0°C 47.1°F8.4°C 57% 6.6 mph W10.6 kmh W 12.2 mph19.6 kmh 30.07 in1018.3 mb 0.00 in0.0 mm 0.00 in0.0 mm 0.00 in0.0 mm
04:30 PM 62.2°F16.8°C 47.3°F8.5°C 58% 7.5 mph NW12.1 kmh NW 12.9 mph20.8 kmh 30.07 in1018.3 mb 0.00 in0.0 mm 0.00 in0.0 mm 0.00 in0.0 mm
04:40 PM 62.1°F16.7°C 46.6°F8.1°C 57% 7.1 mph WNW11.4 kmh WNW 14.0 mph22.5 kmh 30.07 in1018.3 mb 0.00 in0.0 mm 0.00 in0.0 mm 0.00 in0.0 mm
04:50 PM 61.7°F16.5°C 45.8°F7.7°C 56% 9.1 mph W14.6 kmh W 19.7 mph31.7 kmh 30.07 in1018.3 mb 0.00 in0.0 mm 0.00 in0.0 mm 0.00 in0.0 mm
05:00 PM 61.2°F16.2°C 45.8°F7.7°C 57% 3.5 mph W5.6 kmh W 5.0 mph8.0 kmh 30.07 in1018.3 mb 0.00 in0.0 mm 0.00 in0.0 mm 0.00 in0.0 mm
05:10 PM 61.2°F16.2°C 45.8°F7.7°C 57% 5.5 mph W8.9 kmh W 8.9 mph14.3 kmh 30.07 in1018.3 mb 0.00 in0.0 mm 0.00 in0.0 mm 0.00 in0.0 mm
05:20 PM 61.0°F16.1°C 45.6°F7.6°C 57% 9.2 mph W14.8 kmh W 11.8 mph19.0 kmh 30.07 in1018.3 mb 0.00 in0.0 mm 0.00 in0.0 mm 0.00 in0.0 mm
05:30 PM 61.0°F16.1°C 45.6°F7.6°C 57% 5.9 mph W9.5 kmh W 11.8 mph19.0 kmh 30.07 in1018.3 mb 0.00 in0.0 mm 0.00 in0.0 mm 0.00 in0.0 mm
05:40 PM 60.8°F16.0°C 45.5°F7.5°C 57% 7.8 mph WNW12.6 kmh WNW 15.7 mph25.3 kmh 30.07 in1018.3 mb 0.00 in0.0 mm 0.00 in0.0 mm 0.00 in0.0 mm
05:50 PM 60.4°F15.8°C 44.7°F7.1°C 56% 5.4 mph W8.7 kmh W 11.8 mph19.0 kmh 30.07 in1018.3 mb 0.00 in0.0 mm 0.00 in0.0 mm 0.00 in0.0 mm
06:00 PM 59.9°F15.5°C 44.2°F6.8°C 56% 9.0 mph W14.5 kmh W 11.8 mph19.0 kmh 30.07 in1018.3 mb 0.00 in0.0 mm 0.00 in0.0 mm 0.00 in0.0 mm
06:10 PM 59.5°F15.3°C 43.8°F6.6°C 56% 2.9 mph WNW4.7 kmh WNW 6.8 mph10.9 kmh 30.07 in1018.3 mb 0.00 in0.0 mm 0.00 in0.0 mm 0.00 in0.0 mm
06:20 PM 59.2°F15.1°C 43.5°F6.4°C 56% 5.2 mph WNW8.4 kmh WNW 9.3 mph15.0 kmh 30.07 in1018.3 mb 0.00 in0.0 mm 0.00 in0.0 mm 0.00 in0.0 mm
06:30 PM 58.6°F14.8°C 43.0°F6.1°C 56% 4.6 mph W7.4 kmh W 12.9 mph20.8 kmh 30.07 in1018.3 mb 0.00 in0.0 mm 0.00 in0.0 mm 0.00 in0.0 mm
06:40 PM 58.3°F14.6°C 42.6°F5.9°C 56% 4.9 mph WNW7.9 kmh WNW 8.9 mph14.3 kmh 30.04 in1017.3 mb 0.00 in0.0 mm 0.00 in0.0 mm 0.00 in0.0 mm
06:50 PM 58.1°F14.5°C 42.5°F5.8°C 56% 2.9 mph W4.7 kmh W 4.3 mph6.9 kmh 30.04 in1017.3 mb 0.00 in0.0 mm 0.00 in0.0 mm 0.00 in0.0 mm
07:00 PM 57.6°F14.2°C 42.0°F5.6°C 56% 2.0 mph W3.2 kmh W 6.4 mph10.3 kmh 30.07 in1018.3 mb 0.00 in0.0 mm 0.00 in0.0 mm 0.00 in0.0 mm
07:10 PM 57.2°F14.0°C 41.6°F5.3°C 56% 3.7 mph WNW6.0 kmh WNW 8.9 mph14.3 kmh 30.07 in1018.3 mb 0.00 in0.0 mm 0.00 in0.0 mm 0.00 in0.0 mm
07:20 PM 57.0°F13.9°C 41.5°F5.3°C 56% 4.0 mph WNW6.4 kmh WNW 10.4 mph16.7 kmh 30.07 in1018.3 mb 0.00 in0.0 mm 0.00 in0.0 mm 0.00 in0.0 mm
07:30 PM 56.7°F13.7°C 41.6°F5.3°C 57% 2.8 mph W4.5 kmh W 5.7 mph9.2 kmh 30.07 in1018.3 mb 0.00 in0.0 mm 0.00 in0.0 mm 0.00 in0.0 mm
07:40 PM 56.3°F13.5°C 41.7°F5.4°C 58% 2.1 mph WNW3.4 kmh WNW 8.9 mph14.3 kmh 30.07 in1018.3 mb 0.00 in0.0 mm 0.00 in0.0 mm 0.00 in0.0 mm
07:50 PM 56.3°F13.5°C 41.7°F5.4°C 58% 2.8 mph W4.5 kmh W 5.7 mph9.2 kmh 30.07 in1018.3 mb 0.00 in0.0 mm 0.00 in0.0 mm 0.00 in0.0 mm
08:00 PM 56.3°F13.5°C 41.7°F5.4°C 58% 0.8 mph WNW1.3 kmh WNW 5.4 mph8.7 kmh 30.07 in1018.3 mb 0.00 in0.0 mm 0.00 in0.0 mm 0.00 in0.0 mm
08:10 PM 56.3°F13.5°C 42.1°F5.6°C 59% 1.7 mph W2.7 kmh W 8.6 mph13.8 kmh 30.07 in1018.3 mb 0.00 in0.0 mm 0.00 in0.0 mm 0.00 in0.0 mm
08:20 PM 56.3°F13.5°C 42.1°F5.6°C 59% 1.1 mph W1.8 kmh W 4.3 mph6.9 kmh 30.07 in1018.3 mb 0.00 in0.0 mm 0.00 in0.0 mm 0.00 in0.0 mm
08:30 PM 56.3°F13.5°C 42.1°F5.6°C 59% 3.3 mph WNW5.3 kmh WNW 10.0 mph16.1 kmh 30.07 in1018.3 mb 0.00 in0.0 mm 0.00 in0.0 mm 0.00 in0.0 mm
08:40 PM 55.9°F13.3°C 41.8°F5.4°C 59% 1.6 mph WSW2.6 kmh WSW 5.7 mph9.2 kmh 30.07 in1018.3 mb 0.00 in0.0 mm 0.00 in0.0 mm 0.00 in0.0 mm
08:50 PM 55.9°F13.3°C 41.8°F5.4°C 59% 2.4 mph WSW3.9 kmh WSW 4.7 mph7.6 kmh 30.07 in1018.3 mb 0.00 in0.0 mm 0.00 in0.0 mm 0.00 in0.0 mm
09:00 PM 55.9°F13.3°C 42.2°F5.7°C 60% 3.0 mph W4.8 kmh W 6.1 mph9.8 kmh 30.07 in1018.3 mb 0.00 in0.0 mm 0.00 in0.0 mm 0.00 in0.0 mm
09:10 PM 55.9°F13.3°C 42.2°F5.7°C 60% 3.1 mph W5.0 kmh W 6.1 mph9.8 kmh 30.07 in1018.3 mb 0.00 in0.0 mm 0.00 in0.0 mm 0.00 in0.0 mm
09:20 PM 56.1°F13.4°C 42.4°F5.8°C 60% 3.8 mph WNW6.1 kmh WNW 7.9 mph12.7 kmh 30.07 in1018.3 mb 0.00 in0.0 mm 0.00 in0.0 mm 0.00 in0.0 mm
09:30 PM 55.9°F13.3°C 42.2°F5.7°C 60% 1.2 mph W1.9 kmh W 4.3 mph6.9 kmh 30.07 in1018.3 mb 0.00 in0.0 mm 0.00 in0.0 mm 0.00 in0.0 mm
09:40 PM 55.9°F13.3°C 42.2°F5.7°C 60% 3.5 mph W5.6 kmh W 4.3 mph6.9 kmh 30.07 in1018.3 mb 0.00 in0.0 mm 0.00 in0.0 mm 0.00 in0.0 mm
09:50 PM 55.8°F13.2°C 42.1°F5.6°C 60% 2.1 mph W3.4 kmh W 4.3 mph6.9 kmh 30.07 in1018.3 mb 0.00 in0.0 mm 0.00 in0.0 mm 0.00 in0.0 mm
10:00 PM 55.8°F13.2°C 42.1°F5.6°C 60% 3.7 mph W6.0 kmh W 5.4 mph8.7 kmh 30.07 in1018.3 mb 0.00 in0.0 mm 0.00 in0.0 mm 0.00 in0.0 mm
10:10 PM 55.6°F13.1°C 41.9°F5.5°C 60% 1.4 mph NW2.3 kmh NW 2.5 mph4.0 kmh 30.07 in1018.3 mb 0.00 in0.0 mm 0.00 in0.0 mm 0.00 in0.0 mm
10:20 PM 55.6°F13.1°C 42.3°F5.7°C 61% 1.3 mph NW2.1 kmh NW 2.5 mph4.0 kmh 30.07 in1018.3 mb 0.00 in0.0 mm 0.00 in0.0 mm 0.00 in0.0 mm
10:30 PM 55.4°F13.0°C 42.2°F5.7°C 61% 2.1 mph W3.4 kmh W 10.4 mph16.7 kmh 30.07 in1018.3 mb 0.00 in0.0 mm 0.00 in0.0 mm 0.00 in0.0 mm
10:40 PM 55.0°F12.8°C 41.8°F5.4°C 61% Calm Calm -- 30.07 in1018.3 mb 0.00 in0.0 mm 0.00 in0.0 mm 0.00 in0.0 mm
10:50 PM 55.0°F12.8°C 41.8°F5.4°C 61% 2.8 mph WNW4.5 kmh WNW 6.4 mph10.3 kmh 30.07 in1018.3 mb 0.00 in0.0 mm 0.00 in0.0 mm 0.00 in0.0 mm
11:00 PM 55.2°F12.9°C 42.4°F5.8°C 62% 1.6 mph WSW2.6 kmh WSW 4.3 mph6.9 kmh 30.07 in1018.3 mb 0.00 in0.0 mm 0.00 in0.0 mm 0.00 in0.0 mm
11:10 PM 55.4°F13.0°C 43.0°F6.1°C 63% 1.9 mph N3.1 kmh N 4.7 mph7.6 kmh 30.07 in1018.3 mb 0.00 in0.0 mm 0.00 in0.0 mm 0.00 in0.0 mm
11:20 PM 55.2°F12.9°C 43.2°F6.2°C 64% 2.3 mph SW3.7 kmh SW 5.0 mph8.0 kmh 30.07 in1018.3 mb 0.00 in0.0 mm 0.00 in0.0 mm 0.00 in0.0 mm
11:30 PM 54.9°F12.7°C 42.9°F6.1°C 64% 1.4 mph S2.3 kmh S 1.8 mph2.9 kmh 30.07 in1018.3 mb 0.00 in0.0 mm 0.00 in0.0 mm 0.00 in0.0 mm
11:40 PM 54.5°F12.5°C 42.6°F5.9°C 64% 3.3 mph S5.3 kmh S 4.7 mph7.6 kmh 30.07 in1018.3 mb 0.00 in0.0 mm 0.00 in0.0 mm 0.00 in0.0 mm
11:50 PM 54.5°F12.5°C 42.6°F5.9°C 64% 2.8 mph S4.5 kmh S 4.7 mph7.6 kmh 30.07 in1018.3 mb 0.00 in0.0 mm 0.00 in0.0 mm 0.00 in0.0 mm